sensor_id;sensor_type;location;lat;lon;timestamp;temperature;humidity
47434;SHT31;33184;48.774;8.918;2022-11-11T00:03:18;4.96;86.66
47434;SHT31;33184;48.774;8.918;2022-11-11T00:08:57;5.03;86.28
47434;SHT31;33184;48.774;8.918;2022-11-11T00:14:36;5.00;85.94
47434;SHT31;33184;48.774;8.918;2022-11-11T00:20:14;4.93;85.45
47434;SHT31;33184;48.774;8.918;2022-11-11T00:26:13;4.75;84.90
47434;SHT31;33184;48.774;8.918;2022-11-11T00:31:52;4.65;85.38
47434;SHT31;33184;48.774;8.918;2022-11-11T00:37:50;4.69;85.54
47434;SHT31;33184;48.774;8.918;2022-11-11T00:43:29;4.69;85.34
47434;SHT31;33184;48.774;8.918;2022-11-11T00:49:08;4.55;85.28
47434;SHT31;33184;48.774;8.918;2022-11-11T00:55:06;4.55;85.99
47434;SHT31;33184;48.774;8.918;2022-11-11T01:00:46;4.61;85.92
47434;SHT31;33184;48.774;8.918;2022-11-11T01:06:25;4.62;85.76
47434;SHT31;33184;48.774;8.918;2022-11-11T01:12:04;4.53;85.49
47434;SHT31;33184;48.774;8.918;2022-11-11T01:17:43;4.55;85.84
47434;SHT31;33184;48.774;8.918;2022-11-11T01:23:22;4.57;86.04
47434;SHT31;33184;48.774;8.918;2022-11-11T01:29:01;4.42;86.12
47434;SHT31;33184;48.774;8.918;2022-11-11T01:34:41;4.31;85.95
47434;SHT31;33184;48.774;8.918;2022-11-11T01:40:20;4.30;85.98
47434;SHT31;33184;48.774;8.918;2022-11-11T01:46:00;4.34;86.30
47434;SHT31;33184;48.774;8.918;2022-11-11T01:57:29;4.38;86.33
47434;SHT31;33184;48.774;8.918;2022-11-11T02:03:09;4.31;86.28
47434;SHT31;33184;48.774;8.918;2022-11-11T02:08:49;4.24;85.78
47434;SHT31;33184;48.774;8.918;2022-11-11T02:14:28;4.13;85.29
47434;SHT31;33184;48.774;8.918;2022-11-11T02:20:25;3.93;85.51
47434;SHT31;33184;48.774;8.918;2022-11-11T02:26:05;3.99;86.24
47434;SHT31;33184;48.774;8.918;2022-11-11T02:31:47;4.10;86.18
47434;SHT31;33184;48.774;8.918;2022-11-11T02:37:26;4.07;86.08
47434;SHT31;33184;48.774;8.918;2022-11-11T02:43:05;4.18;86.85
47434;SHT31;33184;48.774;8.918;2022-11-11T02:48:44;4.18;86.39
47434;SHT31;33184;48.774;8.918;2022-11-11T02:54:23;4.09;86.24
47434;SHT31;33184;48.774;8.918;2022-11-11T03:00:03;4.06;86.09
47434;SHT31;33184;48.774;8.918;2022-11-11T03:05:42;3.99;85.97
47434;SHT31;33184;48.774;8.918;2022-11-11T03:11:21;3.93;85.61
47434;SHT31;33184;48.774;8.918;2022-11-11T03:17:07;3.85;85.25
47434;SHT31;33184;48.774;8.918;2022-11-11T03:23:10;3.87;85.94
47434;SHT31;33184;48.774;8.918;2022-11-11T03:28:49;3.72;85.43
47434;SHT31;33184;48.774;8.918;2022-11-11T03:34:28;3.49;86.27
47434;SHT31;33184;48.774;8.918;2022-11-11T03:40:08;3.42;86.90
47434;SHT31;33184;48.774;8.918;2022-11-11T03:45:47;3.49;87.35
47434;SHT31;33184;48.774;8.918;2022-11-11T03:51:26;3.63;87.27
47434;SHT31;33184;48.774;8.918;2022-11-11T03:57:05;3.56;86.60
47434;SHT31;33184;48.774;8.918;2022-11-11T04:03:15;3.42;85.77
47434;SHT31;33184;48.774;8.918;2022-11-11T04:09:14;3.24;85.28
47434;SHT31;33184;48.774;8.918;2022-11-11T04:15:12;3.37;86.02
47434;SHT31;33184;48.774;8.918;2022-11-11T04:21:10;3.34;86.05
47434;SHT31;33184;48.774;8.918;2022-11-11T04:27:11;3.41;86.34
47434;SHT31;33184;48.774;8.918;2022-11-11T04:32:50;3.49;86.48
47434;SHT31;33184;48.774;8.918;2022-11-11T04:38:29;3.39;86.08
47434;SHT31;33184;48.774;8.918;2022-11-11T04:44:27;3.29;86.27
47434;SHT31;33184;48.774;8.918;2022-11-11T04:50:33;3.19;87.20
47434;SHT31;33184;48.774;8.918;2022-11-11T04:56:13;3.14;87.95
47434;SHT31;33184;48.774;8.918;2022-11-11T05:02:10;3.15;88.19
47434;SHT31;33184;48.774;8.918;2022-11-11T05:08:08;3.38;88.21
47434;SHT31;33184;48.774;8.918;2022-11-11T05:14:06;3.39;87.83
47434;SHT31;33184;48.774;8.918;2022-11-11T05:20:04;3.37;87.46
47434;SHT31;33184;48.774;8.918;2022-11-11T05:26:02;3.29;87.24
47434;SHT31;33184;48.774;8.918;2022-11-11T05:31:41;3.14;86.70
47434;SHT31;33184;48.774;8.918;2022-11-11T05:37:20;3.22;87.09
47434;SHT31;33184;48.774;8.918;2022-11-11T05:42:59;3.31;87.26
47434;SHT31;33184;48.774;8.918;2022-11-11T05:48:38;3.34;87.11
47434;SHT31;33184;48.774;8.918;2022-11-11T05:54:37;3.22;86.86
47434;SHT31;33184;48.774;8.918;2022-11-11T06:00:17;3.09;86.30
47434;SHT31;33184;48.774;8.918;2022-11-11T06:05:57;2.80;85.72
47434;SHT31;33184;48.774;8.918;2022-11-11T06:11:36;2.67;86.47
47434;SHT31;33184;48.774;8.918;2022-11-11T06:17:15;2.79;86.99
47434;SHT31;33184;48.774;8.918;2022-11-11T06:22:54;2.79;87.59
47434;SHT31;33184;48.774;8.918;2022-11-11T06:28:41;2.88;88.25
47434;SHT31;33184;48.774;8.918;2022-11-11T06:34:20;3.00;88.44
47434;SHT31;33184;48.774;8.918;2022-11-11T06:39:59;3.19;88.43
47434;SHT31;33184;48.774;8.918;2022-11-11T06:45:38;3.22;88.22
47434;SHT31;33184;48.774;8.918;2022-11-11T06:51:17;3.27;87.86
47434;SHT31;33184;48.774;8.918;2022-11-11T06:56:56;3.31;87.80
47434;SHT31;33184;48.774;8.918;2022-11-11T07:02:35;3.29;87.14
47434;SHT31;33184;48.774;8.918;2022-11-11T07:08:16;3.12;86.95
47434;SHT31;33184;48.774;8.918;2022-11-11T07:13:56;3.04;86.98
47434;SHT31;33184;48.774;8.918;2022-11-11T07:19:34;3.22;87.72
47434;SHT31;33184;48.774;8.918;2022-11-11T07:25:13;3.48;88.18
47434;SHT31;33184;48.774;8.918;2022-11-11T07:30:52;3.78;87.82
47434;SHT31;33184;48.774;8.918;2022-11-11T07:36:32;3.92;87.68
47434;SHT31;33184;48.774;8.918;2022-11-11T07:42:11;4.03;87.46
47434;SHT31;33184;48.774;8.918;2022-11-11T07:47:50;4.10;87.12
47434;SHT31;33184;48.774;8.918;2022-11-11T07:53:29;4.24;87.13
47434;SHT31;33184;48.774;8.918;2022-11-11T07:59:08;4.40;87.11
47434;SHT31;33184;48.774;8.918;2022-11-11T08:04:47;4.45;87.35
47434;SHT31;33184;48.774;8.918;2022-11-11T08:10:26;4.41;87.30
47434;SHT31;33184;48.774;8.918;2022-11-11T08:16:10;4.58;87.51
47434;SHT31;33184;48.774;8.918;2022-11-11T08:21:50;4.78;87.74
47434;SHT31;33184;48.774;8.918;2022-11-11T08:27:29;4.99;87.95
47434;SHT31;33184;48.774;8.918;2022-11-11T08:33:08;5.16;87.72
47434;SHT31;33184;48.774;8.918;2022-11-11T08:38:48;5.32;87.46
47434;SHT31;33184;48.774;8.918;2022-11-11T08:44:27;5.46;87.61
47434;SHT31;33184;48.774;8.918;2022-11-11T08:50:06;5.57;87.68
47434;SHT31;33184;48.774;8.918;2022-11-11T08:55:45;5.70;87.94
47434;SHT31;33184;48.774;8.918;2022-11-11T09:01:25;5.84;88.48
47434;SHT31;33184;48.774;8.918;2022-11-11T09:07:05;6.16;88.84
47434;SHT31;33184;48.774;8.918;2022-11-11T09:12:44;6.36;88.97
47434;SHT31;33184;48.774;8.918;2022-11-11T09:18:23;6.63;89.13
47434;SHT31;33184;48.774;8.918;2022-11-11T09:24:02;7.00;89.41
47434;SHT31;33184;48.774;8.918;2022-11-11T09:29:41;7.39;89.34
47434;SHT31;33184;48.774;8.918;2022-11-11T09:35:20;7.69;89.02
47434;SHT31;33184;48.774;8.918;2022-11-11T09:46:58;9.02;87.91
47434;SHT31;33184;48.774;8.918;2022-11-11T10:04:30;10.45;83.19
47434;SHT31;33184;48.774;8.918;2022-11-11T10:21:54;11.28;81.01
47434;SHT31;33184;48.774;8.918;2022-11-11T10:27:39;11.57;80.75
47434;SHT31;33184;48.774;8.918;2022-11-11T10:33:29;12.00;78.61
47434;SHT31;33184;48.774;8.918;2022-11-11T10:39:14;12.03;78.11
47434;SHT31;33184;48.774;8.918;2022-11-11T10:44:59;12.08;77.80
47434;SHT31;33184;48.774;8.918;2022-11-11T10:50:43;12.59;77.22
47434;SHT31;33184;48.774;8.918;2022-11-11T10:56:37;13.00;75.93
47434;SHT31;33184;48.774;8.918;2022-11-11T11:02:28;13.42;75.83
47434;SHT31;33184;48.774;8.918;2022-11-11T11:08:21;13.86;74.31
47434;SHT31;33184;48.774;8.918;2022-11-11T11:14:05;13.85;74.14
47434;SHT31;33184;48.774;8.918;2022-11-11T11:20:10;14.18;73.35
47434;SHT31;33184;48.774;8.918;2022-11-11T11:25:53;14.64;71.82
47434;SHT31;33184;48.774;8.918;2022-11-11T11:31:40;14.60;71.09
47434;SHT31;33184;48.774;8.918;2022-11-11T11:37:22;14.82;70.64
47434;SHT31;33184;48.774;8.918;2022-11-11T11:55:14;14.91;70.26
47434;SHT31;33184;48.774;8.918;2022-11-11T12:06:53;15.12;70.14
47434;SHT31;33184;48.774;8.918;2022-11-11T12:12:50;15.30;69.37
47434;SHT31;33184;48.774;8.918;2022-11-11T12:18:43;15.85;67.44
47434;SHT31;33184;48.774;8.918;2022-11-11T12:25:16;16.32;65.59
47434;SHT31;33184;48.774;8.918;2022-11-11T12:30:29;16.66;63.48
47434;SHT31;33184;48.774;8.918;2022-11-11T12:36:19;16.63;63.08
47434;SHT31;33184;48.774;8.918;2022-11-11T13:00:24;16.22;61.94
47434;SHT31;33184;48.774;8.918;2022-11-11T13:17:43;16.52;60.39
47434;SHT31;33184;48.774;8.918;2022-11-11T13:23:22;16.92;59.02
47434;SHT31;33184;48.774;8.918;2022-11-11T13:35:41;15.61;61.27
47434;SHT31;33184;48.774;8.918;2022-11-11T13:41:28;15.43;62.08
47434;SHT31;33184;48.774;8.918;2022-11-11T13:47:13;15.32;61.69
47434;SHT31;33184;48.774;8.918;2022-11-11T13:53:02;15.27;63.60
47434;SHT31;33184;48.774;8.918;2022-11-11T13:58:46;15.22;64.08
47434;SHT31;33184;48.774;8.918;2022-11-11T14:04:26;14.98;62.98
47434;SHT31;33184;48.774;8.918;2022-11-11T14:10:06;14.78;65.11
47434;SHT31;33184;48.774;8.918;2022-11-11T14:15:49;14.76;65.51
47434;SHT31;33184;48.774;8.918;2022-11-11T14:21:51;14.74;66.96
47434;SHT31;33184;48.774;8.918;2022-11-11T14:27:33;14.69;67.30
47434;SHT31;33184;48.774;8.918;2022-11-11T14:44:55;14.44;66.89
47434;SHT31;33184;48.774;8.918;2022-11-11T14:56:14;14.18;66.92
47434;SHT31;33184;48.774;8.918;2022-11-11T15:01:56;13.87;67.99
47434;SHT31;33184;48.774;8.918;2022-11-11T15:19:26;13.10;74.07
47434;SHT31;33184;48.774;8.918;2022-11-11T15:31:29;12.54;75.47
47434;SHT31;33184;48.774;8.918;2022-11-11T15:37:15;12.26;76.15
47434;SHT31;33184;48.774;8.918;2022-11-11T15:42:56;12.03;76.92
47434;SHT31;33184;48.774;8.918;2022-11-11T15:48:40;11.96;77.14
47434;SHT31;33184;48.774;8.918;2022-11-11T15:54:21;11.81;77.91
47434;SHT31;33184;48.774;8.918;2022-11-11T16:00:03;11.72;78.08
47434;SHT31;33184;48.774;8.918;2022-11-11T16:05:58;11.50;78.53
47434;SHT31;33184;48.774;8.918;2022-11-11T16:11:38;11.25;79.22
47434;SHT31;33184;48.774;8.918;2022-11-11T16:17:18;11.00;79.52
47434;SHT31;33184;48.774;8.918;2022-11-11T16:22:59;10.87;79.76
47434;SHT31;33184;48.774;8.918;2022-11-11T16:28:48;10.49;80.79
47434;SHT31;33184;48.774;8.918;2022-11-11T16:40:34;10.24;81.93
47434;SHT31;33184;48.774;8.918;2022-11-11T16:52:17;10.04;82.00
47434;SHT31;33184;48.774;8.918;2022-11-11T16:57:59;9.86;81.18
47434;SHT31;33184;48.774;8.918;2022-11-11T17:03:52;9.64;81.26
47434;SHT31;33184;48.774;8.918;2022-11-11T17:09:40;9.47;81.57
47434;SHT31;33184;48.774;8.918;2022-11-11T17:15:20;9.16;82.65
47434;SHT31;33184;48.774;8.918;2022-11-11T17:21:00;9.06;83.07
47434;SHT31;33184;48.774;8.918;2022-11-11T17:26:40;8.95;82.53
47434;SHT31;33184;48.774;8.918;2022-11-11T17:32:19;8.78;82.67
47434;SHT31;33184;48.774;8.918;2022-11-11T17:38:46;8.65;83.31
47434;SHT31;33184;48.774;8.918;2022-11-11T17:44:49;8.52;82.99
47434;SHT31;33184;48.774;8.918;2022-11-11T17:57:05;8.36;83.20
47434;SHT31;33184;48.774;8.918;2022-11-11T18:03:34;8.20;83.88
47434;SHT31;33184;48.774;8.918;2022-11-11T18:09:18;8.19;83.65
47434;SHT31;33184;48.774;8.918;2022-11-11T18:14:57;8.10;83.72
47434;SHT31;33184;48.774;8.918;2022-11-11T18:20:43;7.97;84.11
47434;SHT31;33184;48.774;8.918;2022-11-11T18:26:22;7.89;84.22
47434;SHT31;33184;48.774;8.918;2022-11-11T18:32:01;7.72;85.18
47434;SHT31;33184;48.774;8.918;2022-11-11T18:37:41;7.74;85.39
47434;SHT31;33184;48.774;8.918;2022-11-11T18:43:20;7.70;85.15
47434;SHT31;33184;48.774;8.918;2022-11-11T18:49:02;7.62;84.85
47434;SHT31;33184;48.774;8.918;2022-11-11T18:54:42;7.54;84.57
47434;SHT31;33184;48.774;8.918;2022-11-11T19:00:21;7.34;84.27
47434;SHT31;33184;48.774;8.918;2022-11-11T19:06:04;7.20;84.17
47434;SHT31;33184;48.774;8.918;2022-11-11T19:11:45;7.20;84.20
47434;SHT31;33184;48.774;8.918;2022-11-11T19:17:25;7.13;83.93
47434;SHT31;33184;48.774;8.918;2022-11-11T19:23:04;6.99;84.27
47434;SHT31;33184;48.774;8.918;2022-11-11T19:28:43;6.96;84.14
47434;SHT31;33184;48.774;8.918;2022-11-11T19:34:23;6.94;84.99
47434;SHT31;33184;48.774;8.918;2022-11-11T19:40:02;6.89;85.41
47434;SHT31;33184;48.774;8.918;2022-11-11T19:45:41;6.87;86.03
47434;SHT31;33184;48.774;8.918;2022-11-11T19:51:23;6.84;85.60
47434;SHT31;33184;48.774;8.918;2022-11-11T19:57:03;6.81;85.34
47434;SHT31;33184;48.774;8.918;2022-11-11T20:02:42;6.79;85.29
47434;SHT31;33184;48.774;8.918;2022-11-11T20:08:21;6.73;85.61
47434;SHT31;33184;48.774;8.918;2022-11-11T20:14:03;6.65;86.23
47434;SHT31;33184;48.774;8.918;2022-11-11T20:19:43;6.68;86.90
47434;SHT31;33184;48.774;8.918;2022-11-11T20:25:22;6.68;86.59
47434;SHT31;33184;48.774;8.918;2022-11-11T20:31:19;6.52;85.99
47434;SHT31;33184;48.774;8.918;2022-11-11T20:36:59;6.38;85.85
47434;SHT31;33184;48.774;8.918;2022-11-11T20:42:38;6.32;86.36
47434;SHT31;33184;48.774;8.918;2022-11-11T20:48:17;6.42;86.40
47434;SHT31;33184;48.774;8.918;2022-11-11T20:53:58;6.38;87.03
47434;SHT31;33184;48.774;8.918;2022-11-11T20:59:37;6.40;87.43
47434;SHT31;33184;48.774;8.918;2022-11-11T21:05:16;6.46;87.69
47434;SHT31;33184;48.774;8.918;2022-11-11T21:10:56;6.48;87.71
47434;SHT31;33184;48.774;8.918;2022-11-11T21:16:36;6.36;87.49
47434;SHT31;33184;48.774;8.918;2022-11-11T21:22:15;6.29;87.69
47434;SHT31;33184;48.774;8.918;2022-11-11T21:27:53;6.24;87.68
47434;SHT31;33184;48.774;8.918;2022-11-11T21:33:33;6.18;87.39
47434;SHT31;33184;48.774;8.918;2022-11-11T21:39:11;6.09;86.78
47434;SHT31;33184;48.774;8.918;2022-11-11T21:44:50;5.94;86.40
47434;SHT31;33184;48.774;8.918;2022-11-11T21:50:30;5.81;86.50
47434;SHT31;33184;48.774;8.918;2022-11-11T21:56:11;5.77;86.60
47434;SHT31;33184;48.774;8.918;2022-11-11T22:01:51;5.74;86.57
47434;SHT31;33184;48.774;8.918;2022-11-11T22:07:29;5.71;86.38
47434;SHT31;33184;48.774;8.918;2022-11-11T22:13:09;5.54;86.21
47434;SHT31;33184;48.774;8.918;2022-11-11T22:19:02;5.44;87.01
47434;SHT31;33184;48.774;8.918;2022-11-11T22:24:41;5.46;87.61
47434;SHT31;33184;48.774;8.918;2022-11-11T22:30:20;5.48;87.51
47434;SHT31;33184;48.774;8.918;2022-11-11T22:36:01;5.46;86.98
47434;SHT31;33184;48.774;8.918;2022-11-11T22:41:41;5.39;86.70
47434;SHT31;33184;48.774;8.918;2022-11-11T22:47:20;5.30;86.23
47434;SHT31;33184;48.774;8.918;2022-11-11T22:52:59;5.23;86.22
47434;SHT31;33184;48.774;8.918;2022-11-11T22:58:40;5.16;86.17
47434;SHT31;33184;48.774;8.918;2022-11-11T23:04:22;5.23;86.37
47434;SHT31;33184;48.774;8.918;2022-11-11T23:10:01;5.29;87.40
47434;SHT31;33184;48.774;8.918;2022-11-11T23:15:50;5.22;87.62
47434;SHT31;33184;48.774;8.918;2022-11-11T23:21:29;5.20;88.53
47434;SHT31;33184;48.774;8.918;2022-11-11T23:27:09;5.24;88.47
47434;SHT31;33184;48.774;8.918;2022-11-11T23:32:51;5.32;88.66
47434;SHT31;33184;48.774;8.918;2022-11-11T23:38:31;5.27;88.80
47434;SHT31;33184;48.774;8.918;2022-11-11T23:44:10;5.27;88.99
47434;SHT31;33184;48.774;8.918;2022-11-11T23:49:49;5.24;89.45
47434;SHT31;33184;48.774;8.918;2022-11-11T23:55:28;5.20;89.72
